createdAt,value
2023-04-13T00:00:54.777Z,63.21
2023-04-13T00:03:24.314Z,58.79
2023-04-13T00:05:53.789Z,54.68
2023-04-13T00:08:23.446Z,54.74
2023-04-13T00:10:51.758Z,55.50
2023-04-13T00:13:19.659Z,56.40
2023-04-13T00:15:47.734Z,57.48
2023-04-13T00:18:15.531Z,58.41
2023-04-13T00:20:43.765Z,59.21
2023-04-13T00:23:12.492Z,60.03
2023-04-13T00:25:40.509Z,60.84
2023-04-13T00:28:09.141Z,63.93
2023-04-13T00:30:37.567Z,67.88
2023-04-13T00:33:06.421Z,66.35
2023-04-13T00:35:34.901Z,64.30
2023-04-13T00:38:03.424Z,62.37
2023-04-13T00:40:31.681Z,58.18
2023-04-13T00:43:02.413Z,54.75
2023-04-13T00:45:33.822Z,54.83
2023-04-13T00:48:01.719Z,55.73
2023-04-13T00:50:29.689Z,56.77
2023-04-13T00:52:58.481Z,57.79
2023-04-13T00:55:27.921Z,58.73
2023-04-13T00:57:58.115Z,59.60
2023-04-13T01:00:27.370Z,60.46
2023-04-13T01:02:56.182Z,61.37
2023-04-13T01:05:27.125Z,64.26
2023-04-13T01:08:09.385Z,67.38
2023-04-13T01:10:50.531Z,67.03
2023-04-13T01:13:44.487Z,65.14
2023-04-13T01:16:19.663Z,63.11
2023-04-13T01:18:52.524Z,58.96
2023-04-13T01:21:26.116Z,55.72
2023-04-13T01:24:21.937Z,55.81
2023-04-13T01:26:58.451Z,56.33
2023-04-13T01:29:27.809Z,57.60
2023-04-13T01:31:57.268Z,58.67
2023-04-13T01:34:25.614Z,59.74
2023-04-13T01:36:54.459Z,60.57
2023-04-13T01:39:25.638Z,61.43
2023-04-13T01:42:02.420Z,64.34
2023-04-13T01:44:35.069Z,67.99
2023-04-13T01:47:16.313Z,66.54
2023-04-13T01:50:33.919Z,65.03
2023-04-13T01:53:17.807Z,63.80
2023-04-13T01:55:48.743Z,62.87
2023-04-13T01:58:19.518Z,59.63
2023-04-13T02:00:58.148Z,56.26
2023-04-13T02:03:27.398Z,56.26
2023-04-13T02:05:56.766Z,57.21
2023-04-13T02:08:25.100Z,58.12
2023-04-13T02:10:52.906Z,59.02
2023-04-13T02:13:20.827Z,59.95
2023-04-13T02:15:48.903Z,60.77
2023-04-13T02:18:17.636Z,63.59
2023-04-13T02:20:46.581Z,68.77
2023-04-13T02:23:18.127Z,67.23
2023-04-13T02:25:47.869Z,64.96
2023-04-13T02:28:18.273Z,62.94
2023-04-13T02:30:47.392Z,58.89
2023-04-13T02:33:15.393Z,54.87
2023-04-13T02:35:43.758Z,54.96
2023-04-13T02:38:12.293Z,55.92
2023-04-13T02:40:44.015Z,56.96
2023-04-13T02:43:12.624Z,57.99
2023-04-13T02:45:41.536Z,58.92
2023-04-13T02:48:10.799Z,59.79
2023-04-13T02:50:39.307Z,60.68
2023-04-13T02:53:09.476Z,63.57
2023-04-13T02:55:39.183Z,67.96
2023-04-13T02:58:12.463Z,67.19
2023-04-13T03:00:42.615Z,65.20
2023-04-13T03:03:12.162Z,63.02
2023-04-13T03:05:46.227Z,58.87
2023-04-13T03:08:17.700Z,55.01
2023-04-13T03:11:14.820Z,54.74
2023-04-13T03:13:48.536Z,56.07
2023-04-13T03:16:17.897Z,57.24
2023-04-13T03:18:46.623Z,58.27
2023-04-13T03:21:14.997Z,59.25
2023-04-13T03:23:59.288Z,59.94
2023-04-13T03:26:27.781Z,60.88
2023-04-13T03:28:57.353Z,63.65
2023-04-13T03:31:26.674Z,68.10
2023-04-13T03:33:55.170Z,67.61
2023-04-13T03:36:23.212Z,65.39
2023-04-13T03:38:51.146Z,62.86
2023-04-13T03:41:19.364Z,58.40
2023-04-13T03:43:47.538Z,54.62
2023-04-13T03:46:16.217Z,54.71
2023-04-13T03:48:44.459Z,55.82
2023-04-13T03:51:16.485Z,56.88
2023-04-13T03:53:52.215Z,57.63
2023-04-13T03:56:23.711Z,56.21
2023-04-13T03:58:51.792Z,58.93
2023-04-13T04:01:23.619Z,60.19
2023-04-13T04:03:56.137Z,61.29
2023-04-13T04:06:27.278Z,64.50
2023-04-13T04:09:06.863Z,69.16
2023-04-13T04:11:42.406Z,67.66
2023-04-13T04:14:10.916Z,65.60
2023-04-13T04:16:39.561Z,63.60
2023-04-13T04:19:15.417Z,59.27
2023-04-13T04:21:45.010Z,55.31
2023-04-13T04:24:23.723Z,55.29
2023-04-13T04:26:59.601Z,56.17
2023-04-13T04:29:36.591Z,57.85
2023-04-13T04:32:13.221Z,58.81
2023-04-13T04:34:41.300Z,60.37
2023-04-13T04:37:20.114Z,61.26
2023-04-13T04:39:50.854Z,64.52
2023-04-13T04:42:19.060Z,67.94
2023-04-13T04:44:50.237Z,66.09
2023-04-13T04:47:20.063Z,64.08
2023-04-13T04:50:13.104Z,62.53
2023-04-13T04:52:42.474Z,59.29
2023-04-13T04:55:10.768Z,56.39
2023-04-13T04:57:40.491Z,56.71
2023-04-13T05:00:10.883Z,57.77
2023-04-13T05:02:40.081Z,58.75
2023-04-13T05:05:11.995Z,59.83
2023-04-13T05:07:40.072Z,60.93
2023-04-13T05:10:10.027Z,63.24
2023-04-13T05:12:40.858Z,65.21
2023-04-13T05:15:09.824Z,63.65
2023-04-13T05:17:37.961Z,62.52
2023-04-13T05:20:07.381Z,59.86
2023-04-13T05:22:46.386Z,56.49
2023-04-13T05:25:14.738Z,56.93
2023-04-13T05:27:43.982Z,58.06
2023-04-13T05:30:12.928Z,59.29
2023-04-13T05:32:43.888Z,60.33
2023-04-13T05:35:12.124Z,63.15
2023-04-13T05:37:40.446Z,66.83
2023-04-13T05:40:14.704Z,65.57
2023-04-13T05:42:43.852Z,63.03
2023-04-13T05:45:17.239Z,58.82
2023-04-13T05:48:06.487Z,55.42
2023-04-13T05:50:35.070Z,56.10
2023-04-13T05:53:05.829Z,57.30
2023-04-13T05:55:45.605Z,58.43
2023-04-13T05:58:15.773Z,59.77
2023-04-13T06:00:43.757Z,61.27
2023-04-13T06:03:13.296Z,64.22
2023-04-13T06:05:41.682Z,67.79
2023-04-13T06:08:10.740Z,66.95
2023-04-13T06:10:39.909Z,64.67
2023-04-13T06:13:08.442Z,62.72
2023-04-13T06:15:38.915Z,61.40
2023-04-13T06:18:06.831Z,59.27
2023-04-13T06:20:35.025Z,57.09
2023-04-13T06:23:03.258Z,57.79
2023-04-13T06:25:31.772Z,59.12
2023-04-13T06:28:02.500Z,60.44
2023-04-13T06:30:31.874Z,64.26
2023-04-13T06:33:01.013Z,67.18
2023-04-13T06:35:30.623Z,65.31
2023-04-13T06:38:01.623Z,63.85
2023-04-13T06:40:34.993Z,62.42
2023-04-13T06:43:08.931Z,59.06
2023-04-13T06:45:48.729Z,56.09
2023-04-13T06:48:21.993Z,56.42
2023-04-13T06:50:52.574Z,58.14
2023-04-13T06:53:20.965Z,59.12
2023-04-13T06:55:49.120Z,60.73
2023-04-13T06:58:17.102Z,63.32
2023-04-13T07:00:45.100Z,63.59
2023-04-13T07:03:13.461Z,62.49
2023-04-13T07:05:41.710Z,61.35
2023-04-13T07:08:13.158Z,58.21
2023-04-13T07:10:42.845Z,55.65
2023-04-13T07:13:18.952Z,55.93
2023-04-13T07:15:47.226Z,58.49
2023-04-13T07:18:15.211Z,58.87
2023-04-13T07:20:43.069Z,59.12
2023-04-13T07:23:11.809Z,59.51
2023-04-13T07:25:40.226Z,61.43
2023-04-13T07:28:13.396Z,63.43
2023-04-13T07:30:45.107Z,65.15
2023-04-13T07:33:13.613Z,62.01
2023-04-13T07:35:41.609Z,58.46
2023-04-13T07:38:12.189Z,55.01
2023-04-13T07:40:40.047Z,55.63
2023-04-13T07:43:10.241Z,56.22
2023-04-13T07:45:39.779Z,54.91
2023-04-13T07:48:08.176Z,58.15
2023-04-13T07:50:43.861Z,58.93
2023-04-13T07:53:16.431Z,59.07
2023-04-13T07:55:45.141Z,58.41
2023-04-13T07:58:13.795Z,59.33
2023-04-13T08:00:42.340Z,60.43
2023-04-13T08:03:10.384Z,62.03
2023-04-13T08:05:38.736Z,63.81
2023-04-13T08:08:06.490Z,60.53
2023-04-13T08:10:35.326Z,56.98
2023-04-13T08:13:04.952Z,54.44
2023-04-13T08:15:33.315Z,54.87
2023-04-13T08:18:03.859Z,55.20
2023-04-13T08:20:34.106Z,56.59
2023-04-13T08:23:02.525Z,59.30
2023-04-13T08:25:30.567Z,59.82
2023-04-13T08:27:58.325Z,58.45
2023-04-13T08:30:26.412Z,59.13
2023-04-13T08:32:58.548Z,58.28
2023-04-13T08:35:27.828Z,60.56
2023-04-13T08:37:56.663Z,59.74
2023-04-13T08:40:25.349Z,58.00
2023-04-13T08:42:55.968Z,60.57
2023-04-13T08:45:24.302Z,58.88
2023-04-13T08:47:52.819Z,59.16
2023-04-13T08:50:22.765Z,59.17
2023-04-13T08:52:54.513Z,60.17
2023-04-13T08:55:23.050Z,59.63
2023-04-13T08:57:55.589Z,61.51
2023-04-13T09:00:25.068Z,59.54
2023-04-13T09:03:04.977Z,59.95
2023-04-13T09:05:39.546Z,60.11
2023-04-13T09:08:08.810Z,59.45
2023-04-13T09:10:40.826Z,61.21
2023-04-13T09:13:09.586Z,60.99
2023-04-13T09:15:37.895Z,61.01
2023-04-13T09:18:13.775Z,59.29
2023-04-13T09:20:58.933Z,58.19
2023-04-13T09:23:26.793Z,58.48
2023-04-13T09:26:08.063Z,58.32
2023-04-13T09:28:49.949Z,56.47
2023-04-13T09:31:17.887Z,56.78
2023-04-13T09:33:49.253Z,56.82
2023-04-13T09:36:19.664Z,57.54
2023-04-13T09:38:53.087Z,52.78
2023-04-13T09:41:40.799Z,53.76
2023-04-13T09:44:18.144Z,54.89
2023-04-13T09:46:57.718Z,53.02
2023-04-13T09:49:26.272Z,52.43
2023-04-13T09:51:54.595Z,53.36
2023-04-13T09:54:22.976Z,53.23
2023-04-13T09:56:58.073Z,53.06
2023-04-13T09:59:27.439Z,53.19
2023-04-13T10:01:55.719Z,52.81
2023-04-13T10:04:24.730Z,51.96
2023-04-13T10:06:52.626Z,52.45
2023-04-13T10:09:21.437Z,50.63
2023-04-13T10:11:54.215Z,50.90
2023-04-13T10:14:26.713Z,50.29
2023-04-13T10:17:16.847Z,50.21
2023-04-13T10:19:51.196Z,46.52
2023-04-13T10:22:22.923Z,49.34
2023-04-13T10:24:53.115Z,50.21
2023-04-13T10:27:23.621Z,50.61
2023-04-13T10:29:51.771Z,50.05
2023-04-13T10:32:21.332Z,49.07
2023-04-13T10:34:50.116Z,47.97
2023-04-13T10:37:24.467Z,48.52
2023-04-13T10:40:06.351Z,45.27
2023-04-13T10:42:52.397Z,45.38
2023-04-13T10:45:24.738Z,46.78
2023-04-13T10:47:56.422Z,44.94
2023-04-13T10:50:27.771Z,44.35
2023-04-13T10:53:07.535Z,46.21
2023-04-13T10:55:35.854Z,46.45
2023-04-13T10:58:14.816Z,43.51
2023-04-13T11:00:46.706Z,45.52
2023-04-13T11:03:17.478Z,45.24
2023-04-13T11:05:48.503Z,41.95
2023-04-13T11:08:19.262Z,44.04
2023-04-13T11:10:55.392Z,42.73
2023-04-13T11:13:25.553Z,45.68
2023-04-13T11:16:04.249Z,45.30
2023-04-13T11:18:32.458Z,43.49
2023-04-13T11:21:03.938Z,43.72
2023-04-13T11:23:34.945Z,43.27
2023-04-13T11:26:04.876Z,43.67
2023-04-13T11:28:53.464Z,40.78
2023-04-13T11:31:21.492Z,42.10
2023-04-13T11:33:49.582Z,42.90
2023-04-13T11:36:20.176Z,41.90
2023-04-13T11:38:48.251Z,40.55
2023-04-13T11:41:17.497Z,40.50
2023-04-13T11:43:48.792Z,41.45
2023-04-13T11:46:25.260Z,39.79
2023-04-13T11:48:55.931Z,40.68
2023-04-13T11:51:24.600Z,40.78
2023-04-13T11:53:53.241Z,40.30
2023-04-13T11:56:21.883Z,38.55
2023-04-13T11:58:51.886Z,39.78
2023-04-13T12:01:26.906Z,38.92
2023-04-13T12:04:12.632Z,39.24
2023-04-13T12:06:47.408Z,39.14
2023-04-13T12:09:18.081Z,38.68
2023-04-13T12:12:07.742Z,38.90
2023-04-13T12:17:37.578Z,36.73
2023-04-13T12:20:04.900Z,38.27
2023-04-13T12:22:52.439Z,38.06
2023-04-13T12:25:25.871Z,37.64
2023-04-13T12:27:54.338Z,35.51
2023-04-13T12:30:23.421Z,36.66
2023-04-13T12:32:53.686Z,37.21
2023-04-13T12:35:21.898Z,37.19
2023-04-13T12:37:52.894Z,37.07
2023-04-13T12:40:20.940Z,37.11
2023-04-13T12:42:49.332Z,38.38
2023-04-13T12:45:17.685Z,38.33
2023-04-13T12:47:45.588Z,38.47
2023-04-13T12:50:13.683Z,38.99
2023-04-13T12:52:43.278Z,37.90
2023-04-13T12:55:11.486Z,38.81
2023-04-13T12:57:40.069Z,39.35
2023-04-13T13:00:12.628Z,38.95
2023-04-13T13:02:41.058Z,39.04
2023-04-13T13:05:09.664Z,37.69
2023-04-13T13:07:38.189Z,38.51
2023-04-13T13:10:14.930Z,38.43
2023-04-13T13:12:54.368Z,36.49
2023-04-13T13:15:22.386Z,36.58
2023-04-13T13:17:50.300Z,36.80
2023-04-13T13:20:18.264Z,37.77
2023-04-13T13:22:47.425Z,37.26
2023-04-13T13:25:16.400Z,37.81
2023-04-13T13:30:15.643Z,35.18
2023-04-13T13:32:43.628Z,34.95
2023-04-13T13:35:11.772Z,35.87
2023-04-13T13:37:39.894Z,37.07
2023-04-13T13:40:13.212Z,37.31
2023-04-13T13:42:51.347Z,37.15
2023-04-13T13:45:21.467Z,36.65
2023-04-13T13:47:54.276Z,36.74
2023-04-13T13:50:28.891Z,37.91
2023-04-13T13:53:03.071Z,37.60
2023-04-13T13:55:34.516Z,38.28
2023-04-13T13:58:02.689Z,38.29
2023-04-13T14:00:31.316Z,37.84
2023-04-13T14:02:59.426Z,37.95
2023-04-13T14:05:27.456Z,37.56
2023-04-13T14:07:55.275Z,36.82
2023-04-13T14:10:23.111Z,37.18
2023-04-13T14:12:52.066Z,36.63
2023-04-13T14:15:20.345Z,36.89
2023-04-13T14:17:58.796Z,36.95
2023-04-13T14:20:35.616Z,37.41
2023-04-13T14:23:03.782Z,37.89
2023-04-13T14:25:31.717Z,36.99
2023-04-13T14:27:59.540Z,37.49
2023-04-13T14:30:28.337Z,37.30
2023-04-13T14:32:57.020Z,35.85
2023-04-13T14:35:24.961Z,36.52
2023-04-13T14:37:53.165Z,36.69
2023-04-13T14:40:23.378Z,37.71
2023-04-13T14:42:53.051Z,37.83
2023-04-13T14:45:21.331Z,37.18
2023-04-13T14:47:50.215Z,37.97
2023-04-13T14:50:18.400Z,37.45
2023-04-13T14:52:47.137Z,37.57
2023-04-13T14:55:15.711Z,37.45
2023-04-13T14:57:43.867Z,36.27
2023-04-13T15:00:22.612Z,35.65
2023-04-13T15:02:52.647Z,36.34
2023-04-13T15:05:21.266Z,36.80
2023-04-13T15:07:51.111Z,37.26
2023-04-13T15:10:20.174Z,37.36
2023-04-13T15:12:48.522Z,36.84
2023-04-13T15:15:16.577Z,36.74
2023-04-13T15:17:44.642Z,36.82
2023-04-13T15:20:12.772Z,36.73
2023-04-13T15:22:40.851Z,36.62
2023-04-13T15:25:09.527Z,35.85
2023-04-13T15:27:37.549Z,37.44
2023-04-13T15:30:07.787Z,37.62
2023-04-13T15:32:36.407Z,35.83
2023-04-13T15:35:04.543Z,37.08
2023-04-13T15:37:32.634Z,37.66
2023-04-13T15:40:01.695Z,37.72
2023-04-13T15:42:29.773Z,38.06
2023-04-13T15:44:57.977Z,37.89
2023-04-13T15:47:28.042Z,37.84
2023-04-13T15:49:55.918Z,37.78
2023-04-13T15:52:23.846Z,38.43
2023-04-13T15:54:51.598Z,39.10
2023-04-13T15:57:19.405Z,39.82
2023-04-13T15:59:47.451Z,39.17
2023-04-13T16:02:15.522Z,39.62
2023-04-13T16:04:43.864Z,39.47
2023-04-13T16:07:14.589Z,39.38
2023-04-13T16:09:44.152Z,40.06
2023-04-13T16:12:12.125Z,39.76
2023-04-13T16:14:45.396Z,40.14
2023-04-13T16:17:15.207Z,40.60
2023-04-13T16:19:47.179Z,40.91
2023-04-13T16:22:16.451Z,40.30
2023-04-13T16:24:44.328Z,40.98
2023-04-13T16:27:12.255Z,41.18
2023-04-13T16:29:41.751Z,41.43
2023-04-13T16:32:09.560Z,41.49
2023-04-13T16:34:37.444Z,41.30
2023-04-13T16:37:05.220Z,41.32
2023-04-13T16:39:32.979Z,41.60
2023-04-13T16:42:01.090Z,41.90
2023-04-13T16:44:28.863Z,42.10
2023-04-13T16:46:56.839Z,42.14
2023-04-13T16:49:24.777Z,41.80
2023-04-13T16:51:52.711Z,42.01
2023-04-13T16:54:21.227Z,42.16
2023-04-13T16:56:49.179Z,42.15
2023-04-13T16:59:17.029Z,42.84
2023-04-13T17:01:45.964Z,42.92
2023-04-13T17:04:14.207Z,43.08
2023-04-13T17:06:42.453Z,43.21
2023-04-13T17:09:10.605Z,43.33
2023-04-13T17:11:38.991Z,43.50
2023-04-13T17:14:10.062Z,43.87
2023-04-13T17:16:38.249Z,44.21
2023-04-13T17:19:32.851Z,44.34
2023-04-13T17:22:00.629Z,44.55
2023-04-13T17:24:28.746Z,45.45
2023-04-13T17:26:57.016Z,45.73
2023-04-13T17:29:24.962Z,46.23
2023-04-13T17:31:53.065Z,46.04
2023-04-13T17:34:20.947Z,46.07
2023-04-13T17:36:48.887Z,46.04
2023-04-13T17:39:16.860Z,46.40
2023-04-13T17:41:45.282Z,46.39
2023-04-13T17:44:13.111Z,46.91
2023-04-13T17:46:41.891Z,47.08
2023-04-13T17:49:09.614Z,47.31
2023-04-13T17:51:37.462Z,47.58
2023-04-13T17:54:07.945Z,47.79
2023-04-13T17:56:35.759Z,47.94
2023-04-13T17:59:03.679Z,48.13
2023-04-13T18:01:33.266Z,48.16
2023-04-13T18:04:01.489Z,48.38
2023-04-13T18:06:30.558Z,48.64
2023-04-13T18:08:58.638Z,48.59
2023-04-13T18:11:26.745Z,48.91
2023-04-13T18:13:54.605Z,48.91
2023-04-13T18:16:22.808Z,49.23
2023-04-13T18:18:51.504Z,49.21
2023-04-13T18:21:19.706Z,49.56
2023-04-13T18:23:47.723Z,49.99
2023-04-13T18:26:16.264Z,50.27
2023-04-13T18:28:44.350Z,50.43
2023-04-13T18:31:14.625Z,50.43
2023-04-13T18:33:42.693Z,50.65
2023-04-13T18:36:17.602Z,51.21
2023-04-13T18:38:46.249Z,51.31
2023-04-13T18:41:14.225Z,51.43
2023-04-13T18:43:42.568Z,51.66
2023-04-13T18:46:12.041Z,51.81
2023-04-13T18:48:39.992Z,52.06
2023-04-13T18:51:10.020Z,52.06
2023-04-13T18:53:38.926Z,51.98
2023-04-13T18:56:31.934Z,52.09
2023-04-13T18:58:59.822Z,52.34
2023-04-13T19:01:27.800Z,52.74
2023-04-13T19:03:57.021Z,52.87
2023-04-13T19:06:26.453Z,53.24
2023-04-13T19:08:54.640Z,53.33
2023-04-13T19:11:24.667Z,53.42
2023-04-13T19:13:53.011Z,53.74
2023-04-13T19:16:21.974Z,53.64
2023-04-13T19:18:50.067Z,53.62
2023-04-13T19:21:18.880Z,53.67
2023-04-13T19:23:47.008Z,53.79
2023-04-13T19:26:15.798Z,53.99
2023-04-13T19:28:44.107Z,54.15
2023-04-13T19:31:12.419Z,54.33
2023-04-13T19:33:40.682Z,54.39
2023-04-13T19:36:08.619Z,54.65
2023-04-13T19:38:36.640Z,54.90
2023-04-13T19:41:04.877Z,55.08
2023-04-13T19:43:32.941Z,55.35
2023-04-13T19:46:03.339Z,55.50
2023-04-13T19:48:31.759Z,55.73
2023-04-13T19:50:59.825Z,55.95
2023-04-13T19:53:27.691Z,56.23
2023-04-13T19:55:57.007Z,56.60
2023-04-13T19:58:24.864Z,56.84
2023-04-13T20:00:52.651Z,57.16
2023-04-13T20:03:21.457Z,57.49
2023-04-13T20:05:49.659Z,57.73
2023-04-13T20:08:17.886Z,57.96
2023-04-13T20:10:45.887Z,58.30
2023-04-13T20:13:13.842Z,58.75
2023-04-13T20:15:41.997Z,59.39
2023-04-13T20:18:10.500Z,59.59
2023-04-13T20:20:38.678Z,60.07
2023-04-13T20:23:08.108Z,60.42
2023-04-13T20:25:40.376Z,60.70
2023-04-13T20:28:10.409Z,61.11
2023-04-13T20:30:38.909Z,61.30
2023-04-13T20:33:07.395Z,61.71
2023-04-13T20:35:35.662Z,62.30
2023-04-13T20:38:05.417Z,67.10
2023-04-13T20:40:36.321Z,68.58
2023-04-13T20:43:06.411Z,67.21
2023-04-13T20:45:36.382Z,64.60
2023-04-13T20:50:36.060Z,55.44
2023-04-13T20:53:05.423Z,54.92
2023-04-13T20:55:33.411Z,55.60
2023-04-13T20:58:01.952Z,57.28
2023-04-13T21:08:06.041Z,60.13
2023-04-13T21:10:34.271Z,60.57
2023-04-13T21:13:03.790Z,61.23
2023-04-13T21:15:31.802Z,61.69
2023-04-13T21:18:00.241Z,63.91
2023-04-13T21:20:28.158Z,68.06
2023-04-13T21:22:56.195Z,66.82
2023-04-13T21:25:24.283Z,64.40
2023-04-13T21:27:52.146Z,63.57
2023-04-13T21:30:19.934Z,60.06
2023-04-13T21:32:47.882Z,57.28
2023-04-13T21:35:17.402Z,57.10
2023-04-13T21:37:45.177Z,58.09
2023-04-13T21:40:13.074Z,58.71
2023-04-13T21:42:40.892Z,59.51
2023-04-13T21:45:09.243Z,60.45
2023-04-13T21:47:37.130Z,61.05
2023-04-13T21:50:05.814Z,63.24
2023-04-13T21:52:33.806Z,66.34
2023-04-13T21:55:03.128Z,65.69
2023-04-13T21:57:30.956Z,63.96
2023-04-13T21:59:58.782Z,62.55
2023-04-13T22:02:26.939Z,60.13
2023-04-13T22:04:54.925Z,57.76
2023-04-13T22:07:35.186Z,58.20
2023-04-13T22:10:08.294Z,58.62
2023-04-13T22:12:36.504Z,59.63
2023-04-13T22:15:04.989Z,60.84
2023-04-13T22:17:32.870Z,61.58
2023-04-13T22:20:00.716Z,63.66
2023-04-13T22:22:28.485Z,67.19
2023-04-13T22:24:56.387Z,67.67
2023-04-13T22:27:24.119Z,65.50
2023-04-13T22:29:54.788Z,63.58
2023-04-13T22:32:22.624Z,60.70
2023-04-13T22:34:50.748Z,57.88
2023-04-13T22:37:18.499Z,57.99
2023-04-13T22:39:47.350Z,58.81
2023-04-13T22:42:17.139Z,59.91
2023-04-13T22:44:44.867Z,60.84
2023-04-13T22:47:12.736Z,63.14
2023-04-13T22:49:40.690Z,66.98
2023-04-13T22:52:08.691Z,66.06
2023-04-13T22:54:36.435Z,64.74
2023-04-13T22:57:05.417Z,63.65
2023-04-13T22:59:33.408Z,60.52
2023-04-13T23:02:01.694Z,57.60
2023-04-13T23:04:30.229Z,57.93
2023-04-13T23:06:58.095Z,58.70
2023-04-13T23:09:25.879Z,59.72
2023-04-13T23:11:53.697Z,60.58
2023-04-13T23:14:22.649Z,61.50
2023-04-13T23:16:51.107Z,63.94
2023-04-13T23:19:19.125Z,66.69
2023-04-13T23:21:46.944Z,66.63
2023-04-13T23:24:14.875Z,64.03
2023-04-13T23:26:42.687Z,63.02
2023-04-13T23:29:10.541Z,59.90
2023-04-13T23:31:38.356Z,57.11
2023-04-13T23:34:06.425Z,57.50
2023-04-13T23:36:34.192Z,58.58
2023-04-13T23:39:02.199Z,59.98
2023-04-13T23:41:30.325Z,60.79
2023-04-13T23:43:58.694Z,63.17
2023-04-13T23:46:26.529Z,66.96
2023-04-13T23:48:54.305Z,64.76
2023-04-13T23:51:22.438Z,63.78
2023-04-13T23:53:50.171Z,62.09
2023-04-13T23:56:18.029Z,59.89
2023-04-13T23:58:45.804Z,57.85
